createdAt,value
2023-03-25T00:04:20.717Z,4.57
2023-03-25T00:09:27.930Z,4.32
2023-03-25T00:14:35.339Z,5.62
2023-03-25T00:19:42.592Z,5.71
2023-03-25T00:24:50.064Z,6.03
2023-03-25T00:29:57.362Z,5.95
2023-03-25T00:35:05.669Z,6.98
2023-03-25T00:40:12.942Z,4.20
2023-03-25T00:45:20.361Z,4.11
2023-03-25T00:50:27.615Z,2.34
2023-03-25T00:55:36.218Z,2.33
2023-03-25T01:00:43.479Z,2.28
2023-03-25T01:05:50.940Z,2.33
2023-03-25T01:10:57.928Z,2.79
2023-03-25T01:16:05.303Z,1.98
2023-03-25T01:21:12.456Z,2.88
2023-03-25T01:26:19.830Z,2.41
2023-03-25T01:31:27.099Z,2.57
2023-03-25T01:36:34.402Z,2.05
2023-03-25T01:41:49.760Z,1.53
2023-03-25T01:46:48.530Z,1.54
2023-03-25T01:51:55.721Z,1.90
2023-03-25T01:57:03.354Z,1.77
2023-03-25T02:02:10.393Z,3.31
2023-03-25T02:07:17.719Z,2.92
2023-03-25T02:12:25.033Z,2.68
2023-03-25T02:17:32.385Z,4.92
2023-03-25T02:22:39.614Z,2.78
2023-03-25T02:27:47.032Z,1.97
2023-03-25T02:32:54.203Z,4.79
2023-03-25T02:38:01.514Z,2.41
2023-03-25T02:43:08.730Z,7.72
2023-03-25T02:48:16.100Z,8.86
2023-03-25T02:53:23.274Z,2.70
2023-03-25T02:58:30.694Z,1.89
2023-03-25T03:03:38.195Z,1.94
2023-03-25T03:08:45.553Z,1.47
2023-03-25T03:13:53.008Z,10.24
2023-03-25T03:19:00.392Z,5.75
2023-03-25T03:24:08.902Z,3.62
2023-03-25T03:29:16.297Z,6.25
2023-03-25T03:34:23.579Z,5.63
2023-03-25T03:39:30.979Z,5.22
2023-03-25T03:44:39.466Z,4.06
2023-03-25T03:49:46.753Z,6.22
2023-03-25T03:54:54.028Z,3.28
2023-03-25T04:00:01.683Z,4.16
2023-03-25T04:05:08.974Z,3.30
2023-03-25T04:10:16.366Z,2.35
2023-03-25T04:15:23.666Z,2.53
2023-03-25T04:20:30.989Z,2.16
2023-03-25T04:25:38.283Z,2.44
2023-03-25T04:30:45.726Z,1.52
2023-03-25T04:35:53.180Z,1.25
2023-03-25T04:41:00.476Z,1.64
2023-03-25T04:46:07.633Z,1.68
2023-03-25T04:51:15.028Z,1.49
2023-03-25T04:56:22.210Z,1.74
2023-03-25T05:01:29.616Z,1.64
2023-03-25T05:06:36.747Z,1.36
2023-03-25T05:11:44.000Z,1.54
2023-03-25T05:16:51.228Z,1.42
2023-03-25T05:21:58.519Z,1.64
2023-03-25T05:27:05.679Z,1.32
2023-03-25T05:32:13.102Z,1.53
2023-03-25T05:37:20.366Z,2.13
2023-03-25T05:42:27.659Z,2.02
2023-03-25T05:47:34.805Z,1.84
2023-03-25T05:52:42.234Z,1.58
2023-03-25T05:57:49.465Z,1.47
2023-03-25T06:02:56.926Z,1.97
2023-03-25T06:08:04.017Z,1.39
2023-03-25T06:13:11.404Z,1.61
2023-03-25T06:18:18.503Z,1.36
2023-03-25T06:23:26.052Z,1.16
2023-03-25T06:28:35.114Z,1.92
2023-03-25T06:33:43.047Z,1.76
2023-03-25T06:38:48.130Z,1.55
2023-03-25T06:43:55.538Z,1.43
2023-03-25T06:49:02.857Z,1.76
2023-03-25T06:54:10.124Z,1.73
2023-03-25T06:59:17.653Z,1.64
2023-03-25T07:04:24.993Z,2.45
2023-03-25T07:09:33.926Z,2.33
2023-03-25T07:14:41.236Z,1.79
2023-03-25T07:19:48.472Z,1.67
2023-03-25T07:24:55.939Z,2.09
2023-03-25T07:30:03.283Z,2.01
2023-03-25T07:35:12.924Z,2.35
2023-03-25T07:40:20.230Z,1.99
2023-03-25T07:45:27.697Z,1.61
2023-03-25T07:50:34.910Z,1.56
2023-03-25T07:55:42.354Z,1.49
2023-03-25T08:00:49.480Z,1.53
2023-03-25T08:05:56.842Z,3.37
2023-03-25T08:11:04.030Z,4.05
2023-03-25T08:16:11.411Z,3.41
2023-03-25T08:21:18.523Z,2.48
2023-03-25T08:26:30.993Z,1.68
2023-03-25T08:31:28.196Z,2.30
2023-03-25T08:36:35.516Z,0.94
2023-03-25T08:41:43.945Z,1.88
2023-03-25T08:46:51.239Z,2.03
2023-03-25T08:51:58.397Z,1.10
2023-03-25T08:57:05.769Z,1.12
2023-03-25T09:02:12.980Z,1.02
2023-03-25T09:07:20.280Z,0.82
2023-03-25T09:12:27.401Z,0.86
2023-03-25T09:17:34.780Z,1.03
2023-03-25T09:22:43.086Z,0.82
2023-03-25T09:27:50.474Z,2.60
2023-03-25T09:32:57.663Z,0.78
2023-03-25T09:38:04.935Z,9.07
2023-03-25T09:43:12.031Z,8.72
2023-03-25T09:48:19.421Z,14.46
2023-03-25T09:53:26.708Z,12.55
2023-03-25T09:58:34.087Z,2.35
2023-03-25T10:03:41.334Z,0.89
2023-03-25T10:08:48.717Z,0.77
2023-03-25T10:13:55.941Z,0.77
2023-03-25T10:19:03.375Z,0.70
2023-03-25T10:24:10.642Z,0.76
2023-03-25T10:29:17.978Z,1.95
2023-03-25T10:34:25.182Z,1.02
2023-03-25T10:39:32.555Z,0.71
2023-03-25T10:44:39.845Z,0.91
2023-03-25T10:49:47.130Z,1.76
2023-03-25T10:54:54.290Z,1.91
2023-03-25T11:00:01.738Z,7.34
2023-03-25T11:05:08.946Z,1.81
2023-03-25T11:10:16.340Z,10.45
2023-03-25T11:15:23.685Z,8.63
2023-03-25T11:20:31.057Z,3.02
2023-03-25T11:25:38.168Z,2.18
2023-03-25T11:30:45.576Z,0.75
2023-03-25T11:35:52.949Z,2.39
2023-03-25T11:40:59.920Z,1.05
2023-03-25T11:46:07.143Z,1.68
2023-03-25T11:51:14.532Z,7.21
2023-03-25T11:56:21.748Z,19.71
2023-03-25T12:01:29.110Z,0.88
2023-03-25T12:06:36.425Z,2.57
2023-03-25T12:11:43.627Z,2.98
2023-03-25T12:16:50.790Z,1.07
2023-03-25T12:21:58.233Z,0.88
2023-03-25T12:27:05.462Z,1.21
2023-03-25T12:32:13.052Z,0.89
2023-03-25T12:37:20.220Z,3.35
2023-03-25T12:42:27.677Z,12.02
2023-03-25T12:47:34.948Z,0.90
2023-03-25T12:52:42.328Z,3.25
2023-03-25T12:57:49.652Z,1.10
2023-03-25T13:02:57.123Z,1.02
2023-03-25T13:08:04.292Z,1.06
2023-03-25T13:13:13.908Z,1.19
2023-03-25T13:18:21.030Z,1.15
2023-03-25T13:23:28.715Z,2.13
2023-03-25T13:28:36.003Z,0.89
2023-03-25T13:33:43.373Z,1.16
2023-03-25T13:38:50.616Z,0.97
2023-03-25T13:43:59.317Z,0.87
2023-03-25T13:49:06.548Z,1.02
2023-03-25T13:54:14.089Z,1.54
2023-03-25T13:59:21.055Z,1.30
2023-03-25T14:04:28.501Z,1.19
2023-03-25T14:09:35.672Z,0.99
2023-03-25T14:14:43.079Z,1.06
2023-03-25T14:19:50.338Z,1.00
2023-03-25T14:24:57.768Z,1.29
2023-03-25T14:30:04.915Z,1.03
2023-03-25T14:35:12.259Z,1.12
2023-03-25T14:40:19.446Z,1.24
2023-03-25T14:45:28.368Z,1.22
2023-03-25T14:50:33.468Z,0.97
2023-03-25T14:55:40.787Z,1.04
2023-03-25T15:00:48.107Z,1.10
2023-03-25T15:05:55.919Z,1.08
2023-03-25T15:11:02.191Z,0.97
2023-03-25T15:16:09.508Z,1.06
2023-03-25T15:21:16.635Z,1.00
2023-03-25T15:26:24.076Z,1.36
2023-03-25T15:31:31.337Z,1.32
2023-03-25T15:36:38.659Z,0.95
2023-03-25T15:41:45.885Z,1.08
2023-03-25T15:46:53.117Z,1.02
2023-03-25T15:52:00.354Z,0.97
2023-03-25T15:57:07.782Z,1.98
2023-03-25T16:02:14.871Z,0.88
2023-03-25T16:07:22.319Z,1.17
2023-03-25T16:12:29.461Z,1.14
2023-03-25T16:17:36.848Z,1.24
2023-03-25T16:22:43.951Z,1.26
2023-03-25T16:27:51.374Z,1.19
2023-03-25T16:32:58.611Z,1.45
2023-03-25T16:38:05.976Z,1.09
2023-03-25T16:43:13.161Z,1.12
2023-03-25T16:48:20.642Z,1.09
2023-03-25T16:53:27.915Z,1.30
2023-03-25T16:58:35.265Z,1.30
2023-03-25T17:03:42.672Z,1.22
2023-03-25T17:08:50.000Z,1.28
2023-03-25T17:13:57.145Z,1.84
2023-03-25T17:19:04.488Z,5.58
2023-03-25T17:24:11.742Z,3.05
2023-03-25T17:29:19.297Z,2.00
2023-03-25T17:34:27.913Z,2.06
2023-03-25T17:39:35.255Z,20.19
2023-03-25T17:44:42.448Z,29.41
2023-03-25T17:49:49.697Z,3.41
2023-03-25T17:54:56.957Z,4.55
2023-03-25T18:00:04.769Z,2.77
2023-03-25T18:05:12.045Z,3.55
2023-03-25T18:10:19.465Z,2.38
2023-03-25T18:15:26.678Z,2.58
2023-03-25T18:20:34.158Z,2.68
2023-03-25T18:25:41.334Z,1.92
2023-03-25T18:30:48.738Z,2.18
2023-03-25T18:35:56.050Z,2.33
2023-03-25T18:41:03.297Z,2.47
2023-03-25T18:46:10.602Z,2.80
2023-03-25T18:51:18.034Z,1.98
2023-03-25T18:56:25.373Z,3.32
2023-03-25T19:01:32.741Z,2.48
2023-03-25T19:06:39.872Z,5.47
2023-03-25T19:11:47.557Z,21.56
2023-03-25T19:17:03.600Z,38.63
2023-03-25T19:22:01.830Z,25.22
2023-03-25T19:27:09.033Z,11.75
2023-03-25T19:32:16.407Z,18.76
2023-03-25T19:37:23.548Z,8.84
2023-03-25T19:42:30.927Z,3.67
2023-03-25T19:47:38.285Z,3.82
2023-03-25T19:52:45.713Z,2.94
2023-03-25T19:57:52.953Z,3.58
2023-03-25T20:03:00.404Z,4.86
2023-03-25T20:08:07.797Z,4.94
2023-03-25T20:13:15.226Z,2.69
2023-03-25T20:18:22.539Z,2.21
2023-03-25T20:23:29.876Z,1.88
2023-03-25T20:28:37.264Z,2.68
2023-03-25T20:33:44.720Z,2.15
2023-03-25T20:38:57.815Z,2.67
2023-03-25T20:43:59.052Z,4.38
2023-03-25T20:49:06.387Z,1.76
2023-03-25T20:54:13.895Z,2.33
2023-03-25T20:59:21.233Z,3.75
2023-03-25T21:04:28.597Z,3.80
2023-03-25T21:09:35.804Z,4.92
2023-03-25T21:14:43.227Z,2.26
2023-03-25T21:19:50.442Z,2.11
2023-03-25T21:24:57.994Z,1.52
2023-03-25T21:30:05.294Z,1.47
2023-03-25T21:35:12.714Z,1.41
2023-03-25T21:40:19.872Z,1.99
2023-03-25T21:45:27.282Z,4.20
2023-03-25T21:50:34.491Z,3.37
2023-03-25T21:55:41.893Z,1.44
2023-03-25T22:00:49.175Z,1.47
2023-03-25T22:05:56.700Z,1.45
2023-03-25T22:11:03.706Z,1.68
2023-03-25T22:16:11.171Z,2.60
2023-03-25T22:21:18.354Z,2.80
2023-03-25T22:26:25.714Z,2.63
2023-03-25T22:31:32.886Z,1.66
2023-03-25T22:36:40.122Z,2.44
2023-03-25T22:41:47.559Z,2.92
2023-03-25T22:46:54.865Z,2.49
2023-03-25T22:52:02.113Z,5.42
2023-03-25T22:57:09.566Z,1.40
2023-03-25T23:02:16.766Z,1.29
2023-03-25T23:07:24.075Z,1.48
2023-03-25T23:12:31.359Z,3.05
2023-03-25T23:17:38.852Z,5.12
2023-03-25T23:22:45.975Z,2.69
2023-03-25T23:27:53.316Z,1.50
2023-03-25T23:33:00.522Z,3.12
2023-03-25T23:38:08.002Z,1.86
2023-03-25T23:43:15.217Z,1.59
2023-03-25T23:48:22.520Z,1.28
2023-03-25T23:53:29.801Z,1.38
2023-03-25T23:58:37.163Z,3.23
